Time;durP1;ratioP1;P1;durP2;ratioP2;P2;SDS_P1;SDS_P2;PMS_P1;PMS_P2;Temp;Humidity;BMP_temperature;BMP_pressure;BME280_temperature;BME280_humidity;BME280_pressure;Samples;Min_cycle;Max_cycle;Signal;HPM_P1;HPM_P2
2023/05/01 07:01:17;;;;;;;0.10;0.10;;;15.60;99.90;20.70;101371.00;;;;6278393;22;20178;-65
2023/05/01 07:03:43;;;;;;;0.50;0.50;;;16.30;99.90;20.30;101386.00;;;;6251364;22;20160;-65
2023/05/01 07:06:09;;;;;;;0.50;0.50;;;16.70;99.90;21.70;101364.00;;;;6226438;22;20154;-65
2023/05/01 07:08:38;;;;;;;3.10;1.90;;;17.30;99.90;21.10;101376.00;;;;6250890;22;20478;-65
2023/05/01 07:11:07;;;;;;;0.90;0.90;;;17.40;99.90;19.50;101414.00;;;;6226847;22;20153;-65
2023/05/01 07:13:34;;;;;;;0.10;0.10;;;16.60;99.90;20.90;101392.00;;;;6226438;22;20182;-65
2023/05/01 07:16:01;;;;;;;0.93;0.93;;;16.70;99.90;21.80;101382.00;;;;6251679;22;20145;-67
2023/05/01 07:18:27;;;;;;;0.20;0.20;;;17.30;99.90;20.60;101396.00;;;;6251433;22;20194;-67
2023/05/01 07:20:53;;;;;;;0.30;0.30;;;17.20;99.90;21.40;101399.00;;;;6251433;22;20465;-66
2023/05/01 07:23:19;;;;;;;3.13;2.83;;;17.40;99.90;20.90;101419.00;;;;6277723;22;20149;-67
2023/05/01 07:25:45;;;;;;;0.40;0.40;;;17.30;99.90;20.80;101409.00;;;;6278395;22;20176;-65
2023/05/01 07:28:11;;;;;;;4.33;3.10;;;17.20;99.90;19.10;101446.00;;;;6278291;22;20168;-64
2023/05/01 07:30:41;;;;;;;4.00;2.80;;;16.40;99.90;19.70;101431.00;;;;6277959;22;20607;-64
2023/05/01 07:33:07;;;;;;;0.80;0.80;;;16.30;99.90;18.50;101412.00;;;;6225981;22;20180;-66
2023/05/01 07:35:36;;;;;;;0.20;0.20;;;15.80;99.90;19.30;101393.00;;;;6278326;22;20218;-64
2023/05/01 07:38:02;;;;;;;0.53;0.53;;;15.90;99.90;19.90;101372.00;;;;6250855;22;20159;-64
2023/05/01 07:40:28;;;;;;;0.93;0.93;;;16.20;99.90;21.10;101389.00;;;;6250657;22;20172;-67
2023/05/01 07:42:54;;;;;;;4.73;3.00;;;16.80;99.90;18.80;101407.00;;;;6251074;22;20148;-64
2023/05/01 07:45:20;;;;;;;0.10;0.10;;;16.50;99.90;19.40;101361.00;;;;6250905;22;20472;-64
2023/05/01 07:47:46;;;;;;;2.10;2.00;;;16.20;99.90;20.80;101372.00;;;;6278459;22;20573;-66
2023/05/01 07:50:18;;;;;;;0.10;0.10;;;16.70;99.90;21.50;101383.00;;;;6278262;22;20175;-66
2023/05/01 07:52:44;;;;;;;0.20;0.20;;;17.30;99.90;22.20;101393.00;;;;6252223;22;20525;-67
2023/05/01 07:55:10;;;;;;;1.33;1.23;;;17.70;99.90;21.60;101417.00;;;;6278048;22;20148;-67
2023/05/01 07:57:36;;;;;;;0.57;0.57;;;17.70;99.90;21.20;101412.00;;;;6250949;22;20466;-66
2023/05/01 08:00:02;;;;;;;0.20;0.20;;;17.50;99.90;21.50;101414.00;;;;6260588;22;20173;-66
2023/05/01 08:02:31;;;;;;;0.30;0.30;;;17.40;99.90;21.50;101395.00;;;;6276711;22;20155;-66
2023/05/01 08:05:03;;;;;;;5.43;1.30;;;17.60;99.90;20.90;101401.00;;;;6277445;22;20601;-66
2023/05/01 08:07:29;;;;;;;0.30;0.30;;;17.10;99.90;20.60;101405.00;;;;6251458;22;20165;-67
2023/05/01 08:09:56;;;;;;;6.27;3.60;;;17.00;99.90;21.50;101413.00;;;;6277713;22;20144;-67
2023/05/01 08:12:25;;;;;;;0.40;0.40;;;17.30;99.90;21.70;101417.00;;;;6276434;22;20532;-67
2023/05/01 08:14:52;;;;;;;1.27;1.17;;;17.50;99.90;22.00;101418.00;;;;6276442;22;20177;-67
2023/05/01 08:17:19;;;;;;;2.77;2.53;;;17.60;99.90;21.60;101404.00;;;;6250938;22;20244;-67
2023/05/01 08:19:48;;;;;;;0.37;0.37;;;17.60;99.90;21.60;101429.00;;;;6276344;22;20144;-67
2023/05/01 08:22:17;;;;;;;0.20;0.20;;;17.60;99.90;21.40;101432.00;;;;6276733;22;20147;-67
2023/05/01 08:24:43;;;;;;;0.40;0.40;;;17.60;99.90;21.10;101440.00;;;;6278038;22;20164;-67
2023/05/01 08:27:09;;;;;;;0.93;0.93;;;17.30;99.90;21.50;101433.00;;;;6276148;22;20140;-67
2023/05/01 08:29:35;;;;;;;2.17;2.07;;;17.40;99.90;21.60;101429.00;;;;6276024;22;20162;-67
2023/05/01 08:32:04;;;;;;;0.63;0.57;;;17.40;99.90;21.70;101427.00;;;;6275950;22;20201;-66
2023/05/01 08:34:35;;;;;;;0.20;0.20;;;17.60;99.90;21.20;101428.00;;;;6276265;22;20167;-67
2023/05/01 08:37:01;;;;;;;0.47;0.47;;;17.30;99.90;21.20;101425.00;;;;6250562;22;20239;-67
2023/05/01 08:39:33;;;;;;;1.47;1.37;;;17.30;99.90;21.20;101429.00;;;;6277713;22;20317;-66
2023/05/01 08:41:59;;;;;;;2.77;1.77;;;17.40;99.90;21.40;101412.00;;;;6250987;22;20168;-67
2023/05/01 08:44:27;;;;;;;1.33;1.30;;;17.40;99.90;21.00;101391.00;;;;6250780;22;20181;-66
2023/05/01 08:47:11;;;;;;;0.60;0.60;;;17.20;99.90;21.60;101407.00;;;;6276207;22;20142;-66
2023/05/01 08:49:46;;;;;;;0.77;0.73;;;17.50;99.90;21.10;101413.00;;;;6250540;22;20185;-66
2023/05/01 08:52:14;;;;;;;0.10;0.10;;;17.40;99.90;21.40;101421.00;;;;6250565;22;20177;-67
2023/05/01 08:54:45;;;;;;;0.60;0.43;;;17.50;99.90;21.90;101422.00;;;;6277330;22;20156;-67
2023/05/01 08:57:12;;;;;;;2.47;1.63;;;17.80;99.90;22.00;101429.00;;;;6250606;22;20155;-67
2023/05/01 08:59:39;;;;;;;0.20;0.20;;;17.90;99.90;21.90;101436.00;;;;6250050;22;20238;-67
2023/05/01 09:02:08;;;;;;;0.10;0.10;;;17.90;99.90;22.00;101439.00;;;;6275515;22;20547;-67
2023/05/01 09:04:40;;;;;;;0.47;0.47;;;18.10;99.90;22.10;101439.00;;;;6275418;22;20145;-67
2023/05/01 09:07:06;;;;;;;4.57;3.13;;;18.20;99.90;22.00;101446.00;;;;6276001;22;20144;-67
2023/05/01 09:09:33;;;;;;;0.67;0.67;;;18.20;99.90;22.40;101433.00;;;;6275899;22;20158;-67
2023/05/01 09:12:08;;;;;;;12.50;9.37;;;18.40;99.90;21.70;101448.00;;;;6275327;22;20177;-67
2023/05/01 09:14:42;;;;;;;1.93;1.77;;;18.30;99.90;22.40;101441.00;;;;6275535;22;20281;-67
2023/05/01 09:17:11;;;;;;;0.30;0.30;;;18.40;99.90;21.60;101449.00;;;;6275388;22;20157;-66
2023/05/01 09:19:44;;;;;;;1.33;1.33;;;18.40;99.90;22.50;101441.00;;;;6275721;22;20221;-67
2023/05/01 09:22:10;;;;;;;1.63;1.60;;;18.40;99.90;22.60;101423.00;;;;6275774;22;20147;-66
2023/05/01 09:24:36;;;;;;;0.20;0.20;;;18.50;99.90;22.80;101457.00;;;;6275938;22;20211;-67
2023/05/01 09:27:05;;;;;;;0.20;0.20;;;18.70;99.90;22.80;101456.00;;;;6275801;22;20138;-67
2023/05/01 09:29:47;;;;;;;0.20;0.20;;;18.80;99.90;23.30;101451.00;;;;6275553;22;20221;-67
2023/05/01 09:32:23;;;;;;;0.30;0.30;;;19.00;99.90;23.90;101457.00;;;;6275588;22;20179;-67
2023/05/01 09:34:55;;;;;;;0.43;0.43;;;19.40;99.90;22.70;101473.00;;;;6274755;22;20375;-67
2023/05/01 09:37:32;;;;;;;0.90;0.90;;;19.30;99.90;23.30;101475.00;;;;6275695;22;20163;-67
2023/05/01 09:40:12;;;;;;;0.43;0.43;;;19.40;99.90;22.40;101477.00;;;;6275828;22;20226;-66
2023/05/01 09:42:50;;;;;;;0.37;0.37;;;18.60;99.90;23.20;101477.00;;;;6250003;22;20486;-67
2023/05/01 09:45:25;;;;;;;0.20;0.20;;;19.00;99.90;23.90;101458.00;;;;6250053;22;20238;-67
2023/05/01 09:47:51;;;;;;;2.50;1.42;;;19.50;99.90;24.20;101458.00;;;;6275300;22;20444;-67
2023/05/01 09:50:33;;;;;;;0.20;0.20;;;19.80;99.90;24.30;101453.00;;;;6276921;22;20163;-64
2023/05/01 09:53:05;;;;;;;0.45;0.45;;;20.20;99.90;24.20;101459.00;;;;6275421;22;20175;-64
2023/05/01 09:55:32;;;;;;;0.20;0.20;;;20.40;99.90;23.70;101467.00;;;;6275547;22;20147;-65
2023/05/01 09:57:59;;;;;;;0.47;0.47;;;20.20;99.90;23.60;101476.00;;;;6274975;22;20138;-67
2023/05/01 10:00:26;;;;;;;1.27;1.05;;;19.70;99.90;23.90;101463.00;;;;6275250;22;20513;-65
2023/05/01 10:02:52;;;;;;;0.38;0.38;;;19.90;99.90;23.70;101475.00;;;;6249647;22;20195;-65
2023/05/01 10:05:21;;;;;;;0.20;0.20;;;20.00;99.90;24.80;101460.00;;;;6276905;22;20149;-65
2023/05/01 10:08:16;;;;;;;0.68;0.68;;;20.40;99.90;25.10;101453.00;;;;6249679;22;20236;-64
2023/05/01 10:10:42;;;;;;;0.25;0.25;;;20.80;99.90;24.60;101425.00;;;;6246714;22;20223;-64
2023/05/01 10:13:18;;;;;;;0.22;0.22;;;20.70;99.90;25.30;101438.00;;;;6276802;22;20183;-65
2023/05/01 10:15:48;;;;;;;0.20;0.20;;;20.90;99.90;25.00;101447.00;;;;6275283;22;20195;-65
2023/05/01 10:18:16;;;;;;;1.13;1.08;;;21.00;99.90;24.60;101456.00;;;;6275380;22;20152;-66
2023/05/01 10:20:45;;;;;;;0.30;0.30;;;20.80;99.90;25.10;101458.00;;;;6275480;22;20138;-65
2023/05/01 10:33:26;;;;;;;0.75;0.30;;;21.00;99.90;25.60;101473.00;;;;5070181;28;20574;-65
2023/05/01 10:35:56;;;;;;;0.10;0.10;;;21.70;99.90;27.30;101434.00;;;;5049187;28;20198;-66
2023/05/01 10:38:36;;;;;;;3.15;2.45;;;22.80;99.90;27.50;101429.00;;;;5049101;28;20603;-66
2023/05/01 10:41:05;;;;;;;2.00;1.85;;;23.90;99.90;28.40;101402.00;;;;5050258;28;20184;-66
2023/05/01 10:43:31;;;;;;;0.15;0.15;;;24.20;99.90;28.50;101422.00;;;;5049123;28;20186;-66
2023/05/01 10:46:26;;;;;;;0.68;0.45;;;24.70;99.90;27.50;101420.00;;;;5050420;28;20190;-66
2023/05/01 10:48:53;;;;;;;0.38;0.38;;;23.80;99.90;28.10;101415.00;;;;5038308;28;20198;-66
2023/05/01 10:51:23;;;;;;;0.68;0.57;;;24.30;99.90;27.30;101458.00;;;;5077519;28;20244;-66
2023/05/01 10:54:11;;;;;;;0.10;0.10;;;24.30;99.90;27.50;101443.00;;;;5050024;28;20174;-66
2023/05/01 10:56:36;;;;;;;5.82;5.00;;;23.80;99.90;27.10;101484.00;;;;5039444;28;20216;-66
2023/05/01 10:59:03;;;;;;;0.93;0.60;;;23.90;99.90;27.20;101500.00;;;;5048773;28;20542;-66
2023/05/01 11:01:44;;;;;;;0.10;0.10;;;23.40;99.90;28.10;101500.00;;;;5048319;28;20286;-66
2023/05/01 11:04:19;;;;;;;0.43;0.40;;;23.70;99.90;28.70;101499.00;;;;5048596;28;20183;-66
2023/05/01 11:07:07;;;;;;;0.10;0.10;;;24.30;99.90;28.60;101493.00;;;;5049880;28;20182;-66
2023/05/01 11:09:59;;;;;;;2.10;1.42;;;24.60;99.90;28.70;101481.00;;;;5042870;28;20213;-66
2023/05/01 11:12:43;;;;;;;0.47;0.47;;;24.70;99.90;28.40;101494.00;;;;5048522;28;20202;-66
2023/05/01 11:15:10;;;;;;;0.30;0.30;;;24.90;99.90;29.50;101477.00;;;;5049414;28;20183;-66
2023/05/01 11:17:39;;;;;;;2.88;2.60;;;25.30;99.90;26.70;101520.00;;;;5048280;28;20190;-66
2023/05/01 11:20:09;;;;;;;0.63;0.63;;;24.60;99.90;27.00;101483.00;;;;5049685;28;20602;-65
2023/05/01 11:22:45;;;;;;;1.73;1.65;;;23.70;99.90;25.50;101515.00;;;;5048398;28;20193;-65
2023/05/01 11:25:29;;;;;;;0.10;0.10;;;22.80;99.90;26.70;101521.00;;;;5047949;28;20186;-65
2023/05/01 11:28:02;;;;;;;0.45;0.45;;;22.50;99.90;27.00;101518.00;;;;5048652;28;20170;-65
2023/05/01 11:30:38;;;;;;;2.45;2.17;;;22.80;99.90;27.70;101516.00;;;;5049554;28;20258;-65
2023/05/01 11:33:04;;;;;;;1.33;1.23;;;23.50;99.90;28.10;101505.00;;;;5047923;28;20236;-65
2023/05/01 11:35:34;;;;;;;0.95;0.95;;;24.00;99.90;28.00;101499.00;;;;5048413;28;20190;-65
2023/05/01 11:38:03;;;;;;;1.30;1.10;;;24.20;99.90;26.90;101499.00;;;;5048012;28;20174;-65
2023/05/01 11:40:33;;;;;;;1.02;1.02;;;23.80;99.90;26.90;101504.00;;;;5048234;28;20240;-65
2023/05/01 11:43:02;;;;;;;2.63;2.28;;;23.30;99.90;26.00;101521.00;;;;5045848;28;20190;-65
2023/05/01 11:45:29;;;;;;;2.00;1.90;;;22.70;99.90;26.30;101505.00;;;;5035759;28;20583;-65
2023/05/01 11:47:56;;;;;;;0.57;0.57;;;22.50;99.90;26.40;101499.00;;;;5034666;28;20240;-65
2023/05/01 11:50:34;;;;;;;0.10;0.10;;;22.30;99.90;26.40;101509.00;;;;5034379;28;20547;-65
2023/05/01 11:53:01;;;;;;;4.70;2.15;;;22.20;99.90;26.10;101522.00;;;;5027712;28;20213;-65
2023/05/01 11:55:32;;;;;;;1.65;0.85;;;22.10;99.90;26.10;101523.00;;;;5034070;28;20541;-65
2023/05/01 11:58:03;;;;;;;0.47;0.47;;;22.00;99.90;25.60;101516.00;;;;5051039;28;20187;-65
2023/05/01 12:00:37;;;;;;;6.53;4.75;;;21.90;99.90;23.90;101534.00;;;;5034436;28;20212;-65
2023/05/01 12:03:13;;;;;;;0.20;0.20;;;21.20;99.90;24.50;101529.00;;;;5035485;28;20195;-65
2023/05/01 12:05:42;;;;;;;0.20;0.20;;;20.80;99.90;24.70;101540.00;;;;5031361;28;20668;-65
2023/05/01 12:08:22;;;;;;;0.25;0.25;;;20.90;99.90;24.60;101544.00;;;;5035981;28;20211;-65
2023/05/01 12:10:56;;;;;;;1.27;0.75;;;20.80;99.90;24.60;101545.00;;;;5018814;28;20183;-65
2023/05/01 12:13:24;;;;;;;2.42;2.33;;;20.80;99.90;24.50;101547.00;;;;5034988;28;20185;-65
2023/05/01 12:15:54;;;;;;;0.45;0.45;;;20.50;99.90;24.00;101551.00;;;;5035326;28;20183;-65
2023/05/01 12:18:34;;;;;;;1.83;1.33;;;20.40;99.90;23.50;101562.00;;;;5035220;28;20187;-65
2023/05/01 12:21:24;;;;;;;0.10;0.10;;;20.10;99.90;24.00;101552.00;;;;5017940;28;20181;-65
2023/05/01 12:24:11;;;;;;;0.10;0.10;;;20.10;99.90;24.00;101540.00;;;;5017902;28;20645;-65
2023/05/01 12:27:02;;;;;;;0.43;0.43;;;20.20;99.90;24.50;101553.00;;;;5022352;28;20206;-65
2023/05/01 12:29:46;;;;;;;0.30;0.30;;;20.40;99.90;24.80;101516.00;;;;5015019;28;20195;-65
2023/05/01 12:32:32;;;;;;;1.40;1.30;;;20.60;99.90;24.20;101557.00;;;;5033233;28;20554;-65
2023/05/01 12:35:28;;;;;;;0.80;0.75;;;20.70;99.90;23.50;101545.00;;;;5033757;28;20227;-65
2023/05/01 12:38:21;;;;;;;0.82;0.80;;;20.20;99.90;23.90;101556.00;;;;5033755;28;20232;-65
2023/05/01 12:41:13;;;;;;;0.43;0.43;;;20.40;99.90;25.00;101546.00;;;;5033504;28;20197;-66
2023/05/01 12:43:45;;;;;;;0.55;0.55;;;20.50;99.90;25.00;101543.00;;;;5017486;28;20605;-66
2023/05/01 12:46:33;;;;;;;0.55;0.55;;;20.90;99.90;24.40;101550.00;;;;5033489;28;20186;-65
2023/05/01 12:49:18;;;;;;;4.47;2.97;;;20.70;99.90;23.90;101561.00;;;;5013808;28;20195;-66
2023/05/01 12:52:13;;;;;;;0.20;0.20;;;20.70;99.90;24.30;101563.00;;;;5034809;28;20206;-65
2023/05/01 12:55:08;;;;;;;0.38;0.38;;;20.50;99.90;25.10;101545.00;;;;5025978;28;20199;-66
2023/05/01 12:58:00;;;;;;;0.68;0.68;;;20.80;99.90;25.00;101535.00;;;;5033389;28;20619;-66
2023/05/01 13:00:53;;;;;;;2.50;1.85;;;21.00;99.90;25.30;101537.00;;;;5033717;28;20179;-66
2023/05/01 13:04:08;;;;;;;0.10;0.10;;;21.40;99.90;26.10;101523.00;;;;5030693;28;20201;-66
2023/05/01 13:06:57;;;;;;;0.10;0.10;;;21.70;99.90;26.30;101522.00;;;;4995719;28;20208;-66
2023/05/01 13:09:56;;;;;;;1.05;0.73;;;22.00;99.90;26.50;101521.00;;;;5025625;28;20194;-66
2023/05/01 13:12:46;;;;;;;0.73;0.73;;;22.30;99.90;25.80;101534.00;;;;5029603;28;20244;-66
2023/05/01 13:15:32;;;;;;;1.15;1.15;;;22.30;99.90;25.60;101530.00;;;;5027303;28;20262;-66
2023/05/01 13:18:12;;;;;;;1.00;1.00;;;22.30;99.90;26.00;101526.00;;;;5024114;28;20223;-66
2023/05/01 13:21:09;;;;;;;0.57;0.57;;;22.10;99.90;25.90;101504.00;;;;5032645;28;20515;-66
2023/05/01 13:23:58;;;;;;;0.10;0.10;;;21.80;99.90;25.20;101524.00;;;;5032934;28;20183;-66
2023/05/01 13:26:36;;;;;;;1.08;0.95;;;21.70;99.90;25.50;101524.00;;;;5015978;28;20561;-66
2023/05/01 13:29:25;;;;;;;2.90;1.60;;;21.60;99.90;25.00;101513.00;;;;5028925;28;20183;-66
2023/05/01 13:32:16;;;;;;;2.45;0.82;;;21.50;99.90;24.70;101524.00;;;;5007259;28;20234;-66
2023/05/01 13:34:48;;;;;;;2.30;2.20;;;21.10;99.90;24.90;101526.00;;;;5032446;28;20198;-66
2023/05/01 13:37:38;;;;;;;0.50;0.50;;;21.10;99.90;25.20;101522.00;;;;5032571;28;20195;-66
2023/05/01 13:40:28;;;;;;;0.10;0.10;;;21.00;99.90;25.00;101533.00;;;;5032314;28;20187;-66
2023/05/01 13:43:02;;;;;;;0.43;0.43;;;21.30;99.90;25.20;101524.00;;;;5033236;28;20207;-66
2023/05/01 13:45:43;;;;;;;0.65;0.65;;;21.30;99.90;25.30;101490.00;;;;5032757;28;20224;-66
2023/05/01 13:48:30;;;;;;;0.10;0.10;;;21.40;99.90;25.80;101516.00;;;;5032659;28;20178;-66
2023/05/01 13:51:20;;;;;;;0.95;0.95;;;21.70;99.90;25.30;101535.00;;;;5032257;28;20186;-66
2023/05/01 13:54:07;;;;;;;1.73;1.23;;;21.90;99.90;25.60;101524.00;;;;5031565;28;20179;-66
2023/05/01 13:56:43;;;;;;;0.50;0.50;;;21.90;99.90;26.10;101520.00;;;;5065236;28;20287;-66
2023/05/01 13:59:32;;;;;;;4.03;3.63;;;22.00;99.90;25.50;101524.00;;;;5033363;28;20575;-66
2023/05/01 14:02:27;;;;;;;2.55;2.40;;;21.90;99.90;25.50;101529.00;;;;5033293;28;20194;-66
2023/05/01 14:05:35;;;;;;;0.10;0.10;;;21.50;99.90;26.00;101540.00;;;;5032234;28;20538;-66
2023/05/01 14:08:27;;;;;;;1.88;1.65;;;21.80;99.90;23.60;101537.00;;;;5025468;28;20282;-66
2023/05/01 14:11:06;;;;;;;8.93;4.97;;;21.00;99.90;22.50;101567.00;;;;5036744;28;20175;-66
2023/05/01 14:14:00;;;;;;;2.65;2.40;;;19.90;99.90;23.60;101551.00;;;;5012183;28;20183;-65
2023/05/01 14:16:40;;;;;;;1.27;1.15;;;19.80;99.90;23.70;101561.00;;;;5007855;28;20205;-66
2023/05/01 14:19:12;;;;;;;5.03;2.53;;;19.90;99.90;23.30;101575.00;;;;5023004;28;20190;-66
2023/05/01 14:21:56;;;;;;;1.00;0.82;;;20.00;99.90;23.40;101559.00;;;;5031901;28;20197;-65
2023/05/01 14:24:50;;;;;;;1.60;1.35;;;20.00;99.90;23.70;101575.00;;;;5032758;28;20183;-66
2023/05/01 14:27:45;;;;;;;0.50;0.50;;;19.90;99.90;23.50;101576.00;;;;5025770;28;20183;-65
2023/05/01 14:30:37;;;;;;;3.47;2.42;;;20.00;99.90;23.20;101558.00;;;;5040379;28;20203;-65
2023/05/01 14:33:32;;;;;;;3.78;3.40;;;19.90;99.90;22.20;101581.00;;;;4990975;28;20293;-65
2023/05/01 14:36:24;;;;;;;4.68;4.22;;;19.40;99.90;22.80;101591.00;;;;4954175;28;20193;-65
2023/05/01 14:39:14;;;;;;;0.88;0.88;;;19.30;99.90;23.40;101579.00;;;;4962572;28;20260;-66
2023/05/01 14:41:49;;;;;;;1.63;1.58;;;19.40;99.90;23.70;101584.00;;;;5031939;28;20182;-66
2023/05/01 14:44:27;;;;;;;3.13;1.27;;;19.70;99.90;22.80;101599.00;;;;5023413;28;20178;-66
2023/05/01 14:47:10;;;;;;;0.35;0.35;;;19.60;99.90;23.00;101594.00;;;;5031987;28;20190;-65
2023/05/01 14:50:14;;;;;;;1.35;1.25;;;19.40;99.90;23.10;101603.00;;;;5014793;28;20202;-65
2023/05/01 14:53:03;;;;;;;2.30;2.10;;;19.50;99.90;23.20;101608.00;;;;5006040;28;20596;-65
2023/05/01 14:55:43;;;;;;;3.60;2.57;;;19.50;99.90;22.80;101600.00;;;;4975067;28;20306;-66
2023/05/01 14:58:29;;;;;;;2.85;2.72;;;19.40;99.90;22.90;101620.00;;;;5028117;28;20285;-65
2023/05/01 15:01:16;;;;;;;1.30;1.20;;;19.30;99.90;23.30;101623.00;;;;5015119;28;20193;-65
2023/05/01 15:04:14;;;;;;;10.10;4.70;;;19.50;99.90;23.20;101591.00;;;;5031550;28;20192;-66
2023/05/01 15:07:18;;;;;;;0.53;0.53;;;19.60;99.90;23.40;101619.00;;;;5021872;28;20194;-66
2023/05/01 15:10:07;;;;;;;2.13;1.50;;;19.60;99.90;23.60;101617.00;;;;5032485;28;20178;-66
2023/05/01 15:12:59;;;;;;;1.20;0.97;;;19.70;99.90;23.60;101604.00;;;;5064096;28;20218;-66
2023/05/01 15:15:51;;;;;;;3.00;2.00;;;19.70;99.90;22.90;101609.00;;;;5031427;28;20199;-66
2023/05/01 15:18:21;;;;;;;1.67;1.00;;;19.40;99.90;22.60;101574.00;;;;5027105;28;20514;-65
2023/05/01 15:20:58;;;;;;;2.63;0.97;;;19.20;99.90;23.10;101608.00;;;;5035794;28;20193;-66
2023/05/01 15:23:27;;;;;;;0.20;0.20;;;19.20;99.90;23.50;101608.00;;;;5035241;28;20730;-66
2023/05/01 15:26:19;;;;;;;2.27;1.60;;;19.40;99.90;23.40;101608.00;;;;5015782;28;20277;-66
2023/05/01 15:29:08;;;;;;;0.23;0.23;;;19.50;99.90;23.40;101603.00;;;;5033348;28;20232;-66
2023/05/01 15:32:03;;;;;;;1.17;1.13;;;19.60;99.90;24.00;101568.00;;;;5015946;28;20646;-66
2023/05/01 15:34:55;;;;;;;0.30;0.30;;;19.60;99.90;23.40;101598.00;;;;5033233;28;21571;-66
2023/05/01 15:37:49;;;;;;;0.80;0.80;;;19.60;99.90;23.10;101604.00;;;;5016083;28;20277;-66
2023/05/01 15:40:44;;;;;;;1.33;1.00;;;19.40;99.90;23.30;101609.00;;;;5035817;28;20197;-66
2023/05/01 15:43:33;;;;;;;0.23;0.23;;;19.30;99.90;23.20;101603.00;;;;5030512;28;20202;-65
2023/05/01 15:46:05;;;;;;;0.50;0.50;;;19.30;99.90;22.60;101607.00;;;;5035471;28;20354;-66
2023/05/01 15:48:52;;;;;;;0.97;0.97;;;19.10;99.90;23.00;101612.00;;;;5034650;28;20193;-65
2023/05/01 15:51:40;;;;;;;2.73;1.70;;;19.00;99.90;22.60;101628.00;;;;5015791;28;20545;-66
2023/05/01 15:54:46;;;;;;;4.27;3.73;;;19.00;99.90;22.70;101629.00;;;;5029736;28;20681;-66
2023/05/01 15:57:52;;;;;;;0.27;0.27;;;18.80;99.90;23.10;101628.00;;;;5018073;28;20667;-66
2023/05/01 16:00:38;;;;;;;0.10;0.10;;;19.00;99.90;22.90;101620.00;;;;5027691;28;20206;-66
2023/05/01 16:03:28;;;;;;;1.27;0.50;;;19.10;99.90;22.90;101627.00;;;;5027771;28;20209;-66
2023/05/01 16:06:17;;;;;;;0.10;0.10;;;19.00;99.90;22.90;101640.00;;;;4977080;28;20201;-66
2023/05/01 16:08:54;;;;;;;0.30;0.30;;;18.90;99.90;21.70;101645.00;;;;5034572;28;20191;-65
2023/05/01 16:11:50;;;;;;;0.40;0.40;;;18.60;99.90;22.00;101625.00;;;;5034299;28;20706;-66
2023/05/01 16:14:31;;;;;;;0.60;0.60;;;18.40;99.90;21.30;101663.00;;;;5030529;28;20278;-66
2023/05/01 16:17:08;;;;;;;0.20;0.20;;;18.00;99.90;22.20;101647.00;;;;5030027;28;20207;-65
2023/05/01 16:19:45;;;;;;;0.20;0.20;;;18.30;99.90;22.40;101651.00;;;;5033786;28;20585;-66
2023/05/01 16:22:36;;;;;;;0.90;0.90;;;18.30;99.90;22.50;101672.00;;;;5035213;28;20293;-66
2023/05/01 16:25:25;;;;;;;0.30;0.30;;;18.50;99.90;22.20;101641.00;;;;5034126;28;20191;-66
2023/05/01 16:28:02;;;;;;;0.70;0.67;;;18.60;99.90;22.00;101688.00;;;;5029851;28;20187;-66
2023/05/01 16:30:33;;;;;;;2.63;0.70;;;18.50;99.90;21.60;101697.00;;;;5033534;28;20187;-66
2023/05/01 16:33:25;;;;;;;0.47;0.47;;;18.30;99.90;22.20;101680.00;;;;5033294;28;20212;-66
2023/05/01 16:36:08;;;;;;;0.33;0.33;;;18.20;99.90;22.00;101703.00;;;;5009446;28;20195;-66
2023/05/01 16:38:57;;;;;;;0.73;0.40;;;18.30;99.90;21.80;101699.00;;;;5033580;28;21268;-66
2023/05/01 16:41:44;;;;;;;0.73;0.73;;;18.30;99.90;22.10;101699.00;;;;5024015;28;20181;-65
2023/05/01 16:44:23;;;;;;;0.10;0.10;;;18.20;99.90;22.20;101704.00;;;;5033584;28;20187;-66
2023/05/01 16:47:18;;;;;;;0.10;0.10;;;18.40;99.90;22.40;101708.00;;;;5050653;28;20554;-66
2023/05/01 16:50:07;;;;;;;0.10;0.10;;;18.40;99.90;22.00;101681.00;;;;5032376;28;20575;-66
2023/05/01 16:52:47;;;;;;;0.37;0.37;;;18.30;99.90;22.70;101678.00;;;;5001568;28;20248;-66
2023/05/01 16:55:27;;;;;;;2.20;2.10;;;18.50;99.90;22.50;101715.00;;;;5033816;28;20253;-66
2023/05/01 16:58:16;;;;;;;1.43;1.33;;;18.60;99.90;22.80;101705.00;;;;5033212;28;20658;-66
2023/05/01 17:01:22;;;;;;;0.97;0.97;;;18.80;99.90;22.40;101719.00;;;;5031305;28;20181;-66
2023/05/01 17:04:17;;;;;;;0.60;0.40;;;18.50;99.90;22.10;101719.00;;;;5017822;28;20275;-66
2023/05/01 17:07:07;;;;;;;0.77;0.40;;;18.50;99.90;21.80;101733.00;;;;5032421;28;20196;-66
2023/05/01 17:09:45;;;;;;;0.73;0.73;;;18.30;99.90;21.70;101735.00;;;;5017595;28;20520;-66
2023/05/01 17:12:43;;;;;;;1.27;1.27;;;18.10;99.90;21.50;101731.00;;;;5032700;28;20204;-66
2023/05/01 17:15:34;;;;;;;0.40;0.40;;;17.80;99.90;21.00;101713.00;;;;5031581;28;20284;-66
2023/05/01 17:18:28;;;;;;;0.10;0.10;;;17.60;99.90;21.40;101719.00;;;;4988899;28;20197;-66
2023/05/01 17:21:06;;;;;;;0.10;0.10;;;17.50;99.90;21.60;101724.00;;;;4992456;28;20188;-66
2023/05/01 17:23:43;;;;;;;0.17;0.17;;;17.60;99.90;21.60;101686.00;;;;5022312;28;20193;-66
2023/05/01 17:26:32;;;;;;;0.10;0.10;;;17.60;99.90;21.90;101705.00;;;;5025281;28;20201;-66
2023/05/01 17:29:01;;;;;;;0.10;0.10;;;17.70;99.90;21.50;101718.00;;;;5032769;28;20198;-66
2023/05/01 17:31:30;;;;;;;0.10;0.10;;;17.70;99.90;21.70;101713.00;;;;5025256;28;20203;-66
2023/05/01 17:34:11;;;;;;;0.10;0.10;;;17.70;99.90;21.70;101720.00;;;;5032827;28;20182;-66
2023/05/01 17:36:51;;;;;;;0.10;0.10;;;17.80;99.90;21.80;101714.00;;;;5034055;28;20273;-66
2023/05/01 17:39:41;;;;;;;0.13;0.13;;;17.80;99.90;22.00;101724.00;;;;5033665;28;20189;-66
2023/05/01 17:42:10;;;;;;;0.20;0.20;;;17.80;99.90;21.90;101724.00;;;;5022929;28;20433;-66
2023/05/01 17:44:57;;;;;;;0.20;0.20;;;17.80;99.90;21.60;101728.00;;;;5032493;28;20261;-66
2023/05/01 17:50:18;;;;;;;0.43;0.43;;;17.70;99.90;22.00;101740.00;;;;5024734;28;20207;-66
2023/05/01 17:53:08;;;;;;;6.23;4.70;;;17.80;99.90;21.60;101745.00;;;;5027823;28;20287;-66
2023/05/01 17:55:43;;;;;;;1.50;0.83;;;17.60;99.90;21.30;101749.00;;;;5045499;28;20203;-66
2023/05/01 17:58:14;;;;;;;0.27;0.27;;;17.50;99.90;20.50;101767.00;;;;5015473;28;20557;-66
2023/05/01 18:01:11;;;;;;;0.33;0.33;;;17.10;99.90;20.00;101732.00;;;;5027430;28;20281;-65
2023/05/01 18:03:47;;;;;;;0.53;0.53;;;16.90;99.90;20.20;101745.00;;;;5054160;28;20240;-65
2023/05/01 18:06:36;;;;;;;0.67;0.53;;;16.60;99.90;19.90;101755.00;;;;5027507;28;20543;-66
2023/05/01 18:09:32;;;;;;;0.30;0.30;;;16.50;99.90;20.60;101734.00;;;;5032002;28;20241;-66
2023/05/01 18:12:23;;;;;;;2.07;1.37;;;16.60;99.90;20.00;101726.00;;;;5007047;28;20226;-66
2023/05/01 18:15:12;;;;;;;0.87;0.87;;;16.40;99.90;20.30;101724.00;;;;5025075;28;20645;-66
2023/05/01 18:17:44;;;;;;;0.43;0.37;;;16.50;99.90;20.10;101710.00;;;;5030364;28;20272;-66
2023/05/01 18:20:13;;;;;;;1.30;1.20;;;16.60;99.90;20.30;101702.00;;;;5012854;28;20316;-66
2023/05/01 18:23:02;;;;;;;0.20;0.20;;;16.50;99.90;19.90;101698.00;;;;5016072;28;20205;-66
2023/05/01 18:25:48;;;;;;;0.20;0.20;;;16.40;99.90;20.00;101670.00;;;;4991626;28;20208;-66
2023/05/01 18:28:20;;;;;;;0.20;0.20;;;16.30;99.90;20.20;101669.00;;;;5031703;28;20623;-66
2023/05/01 18:31:10;;;;;;;0.40;0.40;;;16.40;99.90;19.80;101668.00;;;;5015678;28;20174;-66
2023/05/01 18:33:56;;;;;;;0.17;0.17;;;16.20;99.90;19.70;101674.00;;;;5041386;28;20197;-66
2023/05/01 18:36:28;;;;;;;4.33;1.33;;;16.30;99.90;19.50;101643.00;;;;5032452;28;20185;-66
2023/05/01 18:39:00;;;;;;;0.40;0.40;;;16.10;99.90;19.80;101629.00;;;;5031879;28;20335;-66
2023/05/01 18:41:47;;;;;;;1.07;1.07;;;16.10;99.90;19.30;101633.00;;;;5031852;28;20190;-66
2023/05/01 18:44:55;;;;;;;0.40;0.40;;;16.10;99.90;19.60;101638.00;;;;4965005;28;20433;-66
2023/05/01 18:47:35;;;;;;;0.20;0.20;;;16.00;99.90;19.00;101638.00;;;;5043202;28;20193;-66
2023/05/01 18:50:24;;;;;;;0.37;0.37;;;16.00;99.90;19.40;101642.00;;;;5048324;28;20187;-66
2023/05/01 18:53:11;;;;;;;0.43;0.43;;;15.80;99.90;19.00;101650.00;;;;5021867;28;20217;-65